sensor_id;sensor_type;location;lat;lon;timestamp;temperature;humidity
47604;DHT22;33326;51.116;6.900;2022-08-07T00:04:57;18.50;91.70
47604;DHT22;33326;51.116;6.900;2022-08-07T00:09:59;18.60;91.90
47604;DHT22;33326;51.116;6.900;2022-08-07T00:15:03;18.50;92.00
47604;DHT22;33326;51.116;6.900;2022-08-07T00:20:06;18.50;92.20
47604;DHT22;33326;51.116;6.900;2022-08-07T00:25:09;18.40;92.30
47604;DHT22;33326;51.116;6.900;2022-08-07T00:30:12;18.40;92.20
47604;DHT22;33326;51.116;6.900;2022-08-07T00:35:14;18.30;92.30
47604;DHT22;33326;51.116;6.900;2022-08-07T00:40:16;18.30;92.40
47604;DHT22;33326;51.116;6.900;2022-08-07T00:45:20;18.20;92.70
47604;DHT22;33326;51.116;6.900;2022-08-07T00:50:22;18.30;92.70
47604;DHT22;33326;51.116;6.900;2022-08-07T00:55:23;18.20;92.60
47604;DHT22;33326;51.116;6.900;2022-08-07T01:00:27;18.10;92.80
47604;DHT22;33326;51.116;6.900;2022-08-07T01:05:30;18.10;92.90
47604;DHT22;33326;51.116;6.900;2022-08-07T01:10:32;18.00;93.00
47604;DHT22;33326;51.116;6.900;2022-08-07T01:15:36;18.00;93.20
47604;DHT22;33326;51.116;6.900;2022-08-07T01:20:43;17.90;93.40
47604;DHT22;33326;51.116;6.900;2022-08-07T01:25:48;17.80;93.70
47604;DHT22;33326;51.116;6.900;2022-08-07T01:30:51;17.80;93.80
47604;DHT22;33326;51.116;6.900;2022-08-07T01:35:55;17.70;93.80
47604;DHT22;33326;51.116;6.900;2022-08-07T01:41:02;17.70;94.10
47604;DHT22;33326;51.116;6.900;2022-08-07T01:46:06;17.60;94.20
47604;DHT22;33326;51.116;6.900;2022-08-07T01:51:16;17.60;94.30
47604;DHT22;33326;51.116;6.900;2022-08-07T01:56:25;17.50;94.40
47604;DHT22;33326;51.116;6.900;2022-08-07T02:01:32;17.50;94.70
47604;DHT22;33326;51.116;6.900;2022-08-07T02:06:37;17.50;94.80
47604;DHT22;33326;51.116;6.900;2022-08-07T02:11:43;17.40;94.70
47604;DHT22;33326;51.116;6.900;2022-08-07T02:16:47;17.40;95.00
47604;DHT22;33326;51.116;6.900;2022-08-07T02:21:54;17.30;95.00
47604;DHT22;33326;51.116;6.900;2022-08-07T02:26:59;17.20;95.10
47604;DHT22;33326;51.116;6.900;2022-08-07T02:32:03;17.20;95.40
47604;DHT22;33326;51.116;6.900;2022-08-07T02:37:07;17.10;95.50
47604;DHT22;33326;51.116;6.900;2022-08-07T02:42:15;17.10;95.70
47604;DHT22;33326;51.116;6.900;2022-08-07T02:47:21;17.10;96.00
47604;DHT22;33326;51.116;6.900;2022-08-07T02:52:29;17.10;96.10
47604;DHT22;33326;51.116;6.900;2022-08-07T02:57:36;17.10;96.30
47604;DHT22;33326;51.116;6.900;2022-08-07T03:02:41;17.00;96.40
47604;DHT22;33326;51.116;6.900;2022-08-07T03:07:45;17.00;96.60
47604;DHT22;33326;51.116;6.900;2022-08-07T03:12:50;17.00;96.70
47604;DHT22;33326;51.116;6.900;2022-08-07T03:17:54;17.00;96.90
47604;DHT22;33326;51.116;6.900;2022-08-07T03:23:00;16.90;97.10
47604;DHT22;33326;51.116;6.900;2022-08-07T03:28:05;16.80;97.20
47604;DHT22;33326;51.116;6.900;2022-08-07T03:33:08;16.80;97.50
47604;DHT22;33326;51.116;6.900;2022-08-07T03:38:12;16.80;97.50
47604;DHT22;33326;51.116;6.900;2022-08-07T03:43:18;16.70;97.70
47604;DHT22;33326;51.116;6.900;2022-08-07T03:48:25;16.70;97.90
47604;DHT22;33326;51.116;6.900;2022-08-07T03:53:29;16.70;98.10
47604;DHT22;33326;51.116;6.900;2022-08-07T03:58:33;16.70;98.10
47604;DHT22;33326;51.116;6.900;2022-08-07T04:03:36;16.60;98.30
47604;DHT22;33326;51.116;6.900;2022-08-07T04:08:39;16.70;98.30
47604;DHT22;33326;51.116;6.900;2022-08-07T04:13:44;16.60;98.50
47604;DHT22;33326;51.116;6.900;2022-08-07T04:18:46;16.60;98.70
47604;DHT22;33326;51.116;6.900;2022-08-07T04:23:49;16.50;98.70
47604;DHT22;33326;51.116;6.900;2022-08-07T04:28:53;16.50;98.90
47604;DHT22;33326;51.116;6.900;2022-08-07T04:33:55;16.50;99.00
47604;DHT22;33326;51.116;6.900;2022-08-07T04:38:57;16.50;99.20
47604;DHT22;33326;51.116;6.900;2022-08-07T04:44:01;16.50;99.30
47604;DHT22;33326;51.116;6.900;2022-08-07T04:49:14;16.40;99.60
47604;DHT22;33326;51.116;6.900;2022-08-07T04:54:23;16.50;99.90
47604;DHT22;33326;51.116;6.900;2022-08-07T04:59:33;16.50;99.90
47604;DHT22;33326;51.116;6.900;2022-08-07T05:04:40;16.50;99.90
47604;DHT22;33326;51.116;6.900;2022-08-07T05:09:52;16.50;99.90
47604;DHT22;33326;51.116;6.900;2022-08-07T05:15:02;16.50;99.90
47604;DHT22;33326;51.116;6.900;2022-08-07T05:20:18;16.60;99.90
47604;DHT22;33326;51.116;6.900;2022-08-07T05:25:26;16.60;99.90
47604;DHT22;33326;51.116;6.900;2022-08-07T05:30:31;16.70;99.90
47604;DHT22;33326;51.116;6.900;2022-08-07T05:35:37;16.70;99.90
47604;DHT22;33326;51.116;6.900;2022-08-07T05:40:39;16.70;99.90
47604;DHT22;33326;51.116;6.900;2022-08-07T05:45:43;16.70;99.90
47604;DHT22;33326;51.116;6.900;2022-08-07T05:50:46;16.90;99.90
47604;DHT22;33326;51.116;6.900;2022-08-07T05:55:52;16.90;99.90
47604;DHT22;33326;51.116;6.900;2022-08-07T06:00:59;16.90;99.90
47604;DHT22;33326;51.116;6.900;2022-08-07T06:06:01;17.00;99.90
47604;DHT22;33326;51.116;6.900;2022-08-07T06:11:04;17.00;99.90
47604;DHT22;33326;51.116;6.900;2022-08-07T06:16:07;17.10;99.90
47604;DHT22;33326;51.116;6.900;2022-08-07T06:21:10;17.20;99.90
47604;DHT22;33326;51.116;6.900;2022-08-07T06:26:14;17.20;99.60
47604;DHT22;33326;51.116;6.900;2022-08-07T06:31:18;17.20;99.90
47604;DHT22;33326;51.116;6.900;2022-08-07T06:36:21;17.40;99.50
47604;DHT22;33326;51.116;6.900;2022-08-07T06:41:32;17.40;99.10
47604;DHT22;33326;51.116;6.900;2022-08-07T06:46:38;17.50;99.30
47604;DHT22;33326;51.116;6.900;2022-08-07T06:51:42;17.60;99.30
47604;DHT22;33326;51.116;6.900;2022-08-07T06:56:47;17.70;98.80
47604;DHT22;33326;51.116;6.900;2022-08-07T07:01:57;17.70;98.70
47604;DHT22;33326;51.116;6.900;2022-08-07T07:07:01;17.80;98.40
47604;DHT22;33326;51.116;6.900;2022-08-07T07:12:16;17.80;98.40
47604;DHT22;33326;51.116;6.900;2022-08-07T07:17:24;17.90;98.20
47604;DHT22;33326;51.116;6.900;2022-08-07T07:22:27;18.10;97.80
47604;DHT22;33326;51.116;6.900;2022-08-07T07:27:34;18.20;97.20
47604;DHT22;33326;51.116;6.900;2022-08-07T07:32:41;18.30;96.50
47604;DHT22;33326;51.116;6.900;2022-08-07T07:37:44;18.50;97.00
47604;DHT22;33326;51.116;6.900;2022-08-07T07:42:51;18.70;97.10
47604;DHT22;33326;51.116;6.900;2022-08-07T07:47:55;18.80;95.70
47604;DHT22;33326;51.116;6.900;2022-08-07T07:52:58;19.00;95.70
47604;DHT22;33326;51.116;6.900;2022-08-07T07:58:01;19.10;95.10
47604;DHT22;33326;51.116;6.900;2022-08-07T08:03:07;19.20;94.50
47604;DHT22;33326;51.116;6.900;2022-08-07T08:08:11;19.30;94.10
47604;DHT22;33326;51.116;6.900;2022-08-07T08:13:14;19.50;94.80
47604;DHT22;33326;51.116;6.900;2022-08-07T08:18:18;19.80;94.70
47604;DHT22;33326;51.116;6.900;2022-08-07T08:23:22;20.00;93.90
47604;DHT22;33326;51.116;6.900;2022-08-07T08:28:43;20.10;92.70
47604;DHT22;33326;51.116;6.900;2022-08-07T08:33:48;20.20;92.70
47604;DHT22;33326;51.116;6.900;2022-08-07T08:38:53;20.30;92.20
47604;DHT22;33326;51.116;6.900;2022-08-07T08:44:01;20.50;91.90
47604;DHT22;33326;51.116;6.900;2022-08-07T08:49:15;20.70;91.90
47604;DHT22;33326;51.116;6.900;2022-08-07T08:54:22;20.90;91.60
47604;DHT22;33326;51.116;6.900;2022-08-07T08:59:30;21.00;91.10
47604;DHT22;33326;51.116;6.900;2022-08-07T09:04:43;21.30;90.20
47604;DHT22;33326;51.116;6.900;2022-08-07T09:09:55;21.50;90.30
47604;DHT22;33326;51.116;6.900;2022-08-07T09:15:08;21.60;90.00
47604;DHT22;33326;51.116;6.900;2022-08-07T09:20:28;21.80;89.40
47604;DHT22;33326;51.116;6.900;2022-08-07T09:25:39;22.10;88.50
47604;DHT22;33326;51.116;6.900;2022-08-07T09:30:50;22.20;88.60
47604;DHT22;33326;51.116;6.900;2022-08-07T09:36:05;22.40;87.60
47604;DHT22;33326;51.116;6.900;2022-08-07T09:41:16;22.60;86.70
47604;DHT22;33326;51.116;6.900;2022-08-07T09:46:40;22.80;87.90
47604;DHT22;33326;51.116;6.900;2022-08-07T09:51:54;23.10;85.60
47604;DHT22;33326;51.116;6.900;2022-08-07T10:03:05;23.50;82.00
47604;DHT22;33326;51.116;6.900;2022-08-07T10:08:26;23.60;82.20
47604;DHT22;33326;51.116;6.900;2022-08-07T10:13:51;23.90;82.30
47604;DHT22;33326;51.116;6.900;2022-08-07T10:19:21;24.10;80.70
47604;DHT22;33326;51.116;6.900;2022-08-07T10:24:48;24.40;81.20
47604;DHT22;33326;51.116;6.900;2022-08-07T10:29:59;24.60;78.90
47604;DHT22;33326;51.116;6.900;2022-08-07T10:35:11;24.90;80.80
47604;DHT22;33326;51.116;6.900;2022-08-07T10:40:20;25.00;79.10
47604;DHT22;33326;51.116;6.900;2022-08-07T10:45:26;25.20;79.20
47604;DHT22;33326;51.116;6.900;2022-08-07T10:50:34;25.40;79.30
47604;DHT22;33326;51.116;6.900;2022-08-07T10:55:48;25.60;78.50
47604;DHT22;33326;51.116;6.900;2022-08-07T11:00:56;25.60;77.00
47604;DHT22;33326;51.116;6.900;2022-08-07T11:06:04;25.60;78.50
47604;DHT22;33326;51.116;6.900;2022-08-07T11:11:13;25.80;79.80
47604;DHT22;33326;51.116;6.900;2022-08-07T11:16:19;25.90;77.00
47604;DHT22;33326;51.116;6.900;2022-08-07T11:21:28;26.20;76.50
47604;DHT22;33326;51.116;6.900;2022-08-07T11:26:42;26.10;74.10
47604;DHT22;33326;51.116;6.900;2022-08-07T11:31:50;26.10;75.70
47604;DHT22;33326;51.116;6.900;2022-08-07T11:36:58;26.30;76.80
47604;DHT22;33326;51.116;6.900;2022-08-07T11:42:12;26.30;74.30
47604;DHT22;33326;51.116;6.900;2022-08-07T11:47:24;26.60;78.20
47604;DHT22;33326;51.116;6.900;2022-08-07T11:52:41;26.90;73.70
47604;DHT22;33326;51.116;6.900;2022-08-07T11:57:54;27.00;72.00
47604;DHT22;33326;51.116;6.900;2022-08-07T12:03:23;27.00;72.00
47604;DHT22;33326;51.116;6.900;2022-08-07T12:08:35;26.80;71.80
47604;DHT22;33326;51.116;6.900;2022-08-07T12:13:41;27.00;72.90
47604;DHT22;33326;51.116;6.900;2022-08-07T12:18:47;27.20;71.20
47604;DHT22;33326;51.116;6.900;2022-08-07T12:23:56;27.10;71.10
47604;DHT22;33326;51.116;6.900;2022-08-07T12:29:05;27.30;71.40
47604;DHT22;33326;51.116;6.900;2022-08-07T12:34:08;27.40;70.20
47604;DHT22;33326;51.116;6.900;2022-08-07T12:39:12;27.50;71.30
47604;DHT22;33326;51.116;6.900;2022-08-07T12:44:16;27.70;69.00
47604;DHT22;33326;51.116;6.900;2022-08-07T12:49:23;27.70;70.20
47604;DHT22;33326;51.116;6.900;2022-08-07T12:54:31;28.00;70.60
47604;DHT22;33326;51.116;6.900;2022-08-07T12:59:35;28.20;70.70
47604;DHT22;33326;51.116;6.900;2022-08-07T13:04:49;28.40;69.50
47604;DHT22;33326;51.116;6.900;2022-08-07T13:10:18;28.70;68.30
47604;DHT22;33326;51.116;6.900;2022-08-07T13:15:31;28.70;68.10
47604;DHT22;33326;51.116;6.900;2022-08-07T13:20:40;28.70;67.80
47604;DHT22;33326;51.116;6.900;2022-08-07T13:25:47;28.90;68.40
47604;DHT22;33326;51.116;6.900;2022-08-07T13:30:57;28.70;67.70
47604;DHT22;33326;51.116;6.900;2022-08-07T13:36:07;28.90;68.10
47604;DHT22;33326;51.116;6.900;2022-08-07T13:41:26;28.90;66.50
47604;DHT22;33326;51.116;6.900;2022-08-07T13:46:36;29.10;67.70
47604;DHT22;33326;51.116;6.900;2022-08-07T13:51:38;29.10;67.40
47604;DHT22;33326;51.116;6.900;2022-08-07T13:56:42;29.30;66.50
47604;DHT22;33326;51.116;6.900;2022-08-07T14:01:51;29.40;68.40
47604;DHT22;33326;51.116;6.900;2022-08-07T14:06:54;29.20;65.00
47604;DHT22;33326;51.116;6.900;2022-08-07T14:11:58;29.30;66.50
47604;DHT22;33326;51.116;6.900;2022-08-07T14:17:04;29.50;66.40
47604;DHT22;33326;51.116;6.900;2022-08-07T14:22:07;29.60;65.80
47604;DHT22;33326;51.116;6.900;2022-08-07T14:27:12;29.30;64.70
47604;DHT22;33326;51.116;6.900;2022-08-07T14:32:16;29.20;64.80
47604;DHT22;33326;51.116;6.900;2022-08-07T14:37:19;29.20;65.20
47604;DHT22;33326;51.116;6.900;2022-08-07T14:42:26;29.40;65.00
47604;DHT22;33326;51.116;6.900;2022-08-07T14:47:31;29.50;65.00
47604;DHT22;33326;51.116;6.900;2022-08-07T14:52:35;29.40;63.90
47604;DHT22;33326;51.116;6.900;2022-08-07T14:57:38;29.30;64.00
47604;DHT22;33326;51.116;6.900;2022-08-07T15:02:45;29.30;64.00
47604;DHT22;33326;51.116;6.900;2022-08-07T15:07:47;29.20;62.80
47604;DHT22;33326;51.116;6.900;2022-08-07T15:12:54;29.00;62.90
47604;DHT22;33326;51.116;6.900;2022-08-07T15:18:00;28.80;63.30
47604;DHT22;33326;51.116;6.900;2022-08-07T15:23:10;28.90;62.30
47604;DHT22;33326;51.116;6.900;2022-08-07T15:28:15;28.70;62.20
47604;DHT22;33326;51.116;6.900;2022-08-07T15:33:21;28.60;62.90
47604;DHT22;33326;51.116;6.900;2022-08-07T15:38:27;28.80;63.40
47604;DHT22;33326;51.116;6.900;2022-08-07T15:43:30;28.90;62.70
47604;DHT22;33326;51.116;6.900;2022-08-07T15:48:40;28.80;61.50
47604;DHT22;33326;51.116;6.900;2022-08-07T15:53:46;28.70;62.20
47604;DHT22;33326;51.116;6.900;2022-08-07T15:58:50;28.70;62.00
47604;DHT22;33326;51.116;6.900;2022-08-07T16:03:57;28.80;62.70
47604;DHT22;33326;51.116;6.900;2022-08-07T16:09:03;28.80;61.80
47604;DHT22;33326;51.116;6.900;2022-08-07T16:14:11;28.60;61.80
47604;DHT22;33326;51.116;6.900;2022-08-07T16:19:44;28.40;61.10
47604;DHT22;33326;51.116;6.900;2022-08-07T16:24:56;28.40;60.80
47604;DHT22;33326;51.116;6.900;2022-08-07T16:30:08;28.40;62.40
47604;DHT22;33326;51.116;6.900;2022-08-07T16:35:17;28.40;61.60
47604;DHT22;33326;51.116;6.900;2022-08-07T16:40:54;28.30;62.20
47604;DHT22;33326;51.116;6.900;2022-08-07T16:46:24;28.10;61.40
47604;DHT22;33326;51.116;6.900;2022-08-07T16:51:38;28.00;62.10
47604;DHT22;33326;51.116;6.900;2022-08-07T16:56:50;27.90;61.60
47604;DHT22;33326;51.116;6.900;2022-08-07T17:01:59;27.90;62.30
47604;DHT22;33326;51.116;6.900;2022-08-07T17:07:16;27.70;62.40
47604;DHT22;33326;51.116;6.900;2022-08-07T17:12:24;27.60;61.70
47604;DHT22;33326;51.116;6.900;2022-08-07T17:17:41;27.50;61.80
47604;DHT22;33326;51.116;6.900;2022-08-07T17:22:55;27.40;62.50
47604;DHT22;33326;51.116;6.900;2022-08-07T17:28:01;27.30;62.60
47604;DHT22;33326;51.116;6.900;2022-08-07T17:33:12;27.20;62.70
47604;DHT22;33326;51.116;6.900;2022-08-07T17:38:18;27.10;63.30
47604;DHT22;33326;51.116;6.900;2022-08-07T17:43:27;26.90;63.10
47604;DHT22;33326;51.116;6.900;2022-08-07T17:48:32;26.80;63.10
47604;DHT22;33326;51.116;6.900;2022-08-07T17:53:45;26.70;63.10
47604;DHT22;33326;51.116;6.900;2022-08-07T17:58:58;26.70;63.60
47604;DHT22;33326;51.116;6.900;2022-08-07T18:04:11;26.50;63.60
47604;DHT22;33326;51.116;6.900;2022-08-07T18:09:21;26.40;64.10
47604;DHT22;33326;51.116;6.900;2022-08-07T18:14:30;26.30;64.40
47604;DHT22;33326;51.116;6.900;2022-08-07T18:19:39;26.20;65.20
47604;DHT22;33326;51.116;6.900;2022-08-07T18:24:46;26.20;66.10
47604;DHT22;33326;51.116;6.900;2022-08-07T18:30:04;26.20;66.80
47604;DHT22;33326;51.116;6.900;2022-08-07T18:35:15;26.10;67.00
47604;DHT22;33326;51.116;6.900;2022-08-07T18:40:29;26.00;67.70
47604;DHT22;33326;51.116;6.900;2022-08-07T18:45:45;25.90;68.00
47604;DHT22;33326;51.116;6.900;2022-08-07T18:51:03;25.80;68.60
47604;DHT22;33326;51.116;6.900;2022-08-07T18:56:15;25.70;69.10
47604;DHT22;33326;51.116;6.900;2022-08-07T19:01:27;25.60;69.20
47604;DHT22;33326;51.116;6.900;2022-08-07T19:06:40;25.50;69.80
47604;DHT22;33326;51.116;6.900;2022-08-07T19:12:01;25.40;69.90
47604;DHT22;33326;51.116;6.900;2022-08-07T19:17:07;25.30;69.90
47604;DHT22;33326;51.116;6.900;2022-08-07T19:22:19;25.10;70.30
47604;DHT22;33326;51.116;6.900;2022-08-07T19:27:26;25.00;70.50
47604;DHT22;33326;51.116;6.900;2022-08-07T19:32:30;25.00;71.00
47604;DHT22;33326;51.116;6.900;2022-08-07T19:37:33;24.80;70.90
47604;DHT22;33326;51.116;6.900;2022-08-07T19:42:40;24.80;71.20
47604;DHT22;33326;51.116;6.900;2022-08-07T19:47:46;24.70;71.50
47604;DHT22;33326;51.116;6.900;2022-08-07T19:52:49;24.60;71.80
47604;DHT22;33326;51.116;6.900;2022-08-07T19:57:54;24.50;71.80
47604;DHT22;33326;51.116;6.900;2022-08-07T20:03:00;24.40;71.90
47604;DHT22;33326;51.116;6.900;2022-08-07T20:08:07;24.40;72.30
47604;DHT22;33326;51.116;6.900;2022-08-07T20:13:14;24.30;72.40
47604;DHT22;33326;51.116;6.900;2022-08-07T20:18:17;24.20;72.80
47604;DHT22;33326;51.116;6.900;2022-08-07T20:23:20;24.10;72.80
47604;DHT22;33326;51.116;6.900;2022-08-07T20:28:26;24.10;73.20
47604;DHT22;33326;51.116;6.900;2022-08-07T20:33:29;24.00;73.40
47604;DHT22;33326;51.116;6.900;2022-08-07T20:38:33;23.90;73.50
47604;DHT22;33326;51.116;6.900;2022-08-07T20:43:37;23.80;74.00
47604;DHT22;33326;51.116;6.900;2022-08-07T20:48:41;23.80;74.30
47604;DHT22;33326;51.116;6.900;2022-08-07T20:53:43;23.70;74.20
47604;DHT22;33326;51.116;6.900;2022-08-07T20:58:49;23.50;74.50
47604;DHT22;33326;51.116;6.900;2022-08-07T21:03:52;23.50;74.80
47604;DHT22;33326;51.116;6.900;2022-08-07T21:08:56;23.40;75.10
47604;DHT22;33326;51.116;6.900;2022-08-07T21:14:05;23.30;75.30
47604;DHT22;33326;51.116;6.900;2022-08-07T21:19:08;23.20;75.70
47604;DHT22;33326;51.116;6.900;2022-08-07T21:24:13;23.10;76.00
47604;DHT22;33326;51.116;6.900;2022-08-07T21:29:22;23.00;76.40
47604;DHT22;33326;51.116;6.900;2022-08-07T21:34:30;22.80;76.70
47604;DHT22;33326;51.116;6.900;2022-08-07T21:39:38;22.70;77.00
47604;DHT22;33326;51.116;6.900;2022-08-07T21:44:50;22.70;77.80
47604;DHT22;33326;51.116;6.900;2022-08-07T21:49:58;22.60;78.50
47604;DHT22;33326;51.116;6.900;2022-08-07T21:55:07;22.50;78.70
47604;DHT22;33326;51.116;6.900;2022-08-07T22:00:13;22.50;78.80
47604;DHT22;33326;51.116;6.900;2022-08-07T22:05:23;22.40;78.70
47604;DHT22;33326;51.116;6.900;2022-08-07T22:10:27;22.20;79.10
47604;DHT22;33326;51.116;6.900;2022-08-07T22:15:40;22.10;79.40
47604;DHT22;33326;51.116;6.900;2022-08-07T22:20:47;22.10;79.80
47604;DHT22;33326;51.116;6.900;2022-08-07T22:25:58;22.10;79.90
47604;DHT22;33326;51.116;6.900;2022-08-07T22:31:08;22.00;80.00
47604;DHT22;33326;51.116;6.900;2022-08-07T22:36:25;21.90;80.00
47604;DHT22;33326;51.116;6.900;2022-08-07T22:41:32;21.80;80.70
47604;DHT22;33326;51.116;6.900;2022-08-07T22:47:15;21.70;80.50
47604;DHT22;33326;51.116;6.900;2022-08-07T22:52:30;21.60;80.60
47604;DHT22;33326;51.116;6.900;2022-08-07T22:57:48;21.60;80.70
47604;DHT22;33326;51.116;6.900;2022-08-07T23:03:08;21.50;80.90
47604;DHT22;33326;51.116;6.900;2022-08-07T23:08:27;21.50;81.30
47604;DHT22;33326;51.116;6.900;2022-08-07T23:13:56;21.40;81.60
47604;DHT22;33326;51.116;6.900;2022-08-07T23:19:12;21.40;81.30
47604;DHT22;33326;51.116;6.900;2022-08-07T23:24:43;21.40;81.90
47604;DHT22;33326;51.116;6.900;2022-08-07T23:30:05;21.30;81.60
47604;DHT22;33326;51.116;6.900;2022-08-07T23:35:13;21.30;82.10
47604;DHT22;33326;51.116;6.900;2022-08-07T23:40:28;21.10;82.00
47604;DHT22;33326;51.116;6.900;2022-08-07T23:45:37;21.10;82.50
47604;DHT22;33326;51.116;6.900;2022-08-07T23:50:44;21.10;82.50
47604;DHT22;33326;51.116;6.900;2022-08-07T23:55:53;21.00;82.90
